createdAt,value
2023-02-07T00:01:23.978Z,95890.41
2023-02-07T00:03:51.430Z,95894.66
2023-02-07T00:06:40.968Z,95888.38
2023-02-07T00:09:10.705Z,95893.66
2023-02-07T00:11:40.693Z,95895.63
2023-02-07T00:14:10.065Z,95880.31
2023-02-07T00:16:37.054Z,95886.56
2023-02-07T00:19:04.045Z,95876.06
2023-02-07T00:21:31.064Z,95863.16
2023-02-07T00:23:58.072Z,95870.84
2023-02-07T00:26:27.066Z,95874.88
2023-02-07T00:28:55.210Z,95870.06
2023-02-07T00:31:29.686Z,95865.19
2023-02-07T00:34:00.771Z,95861.97
2023-02-07T00:36:29.850Z,95871.06
2023-02-07T00:39:02.510Z,95875.47
2023-02-07T00:41:30.068Z,95878.91
2023-02-07T00:43:57.094Z,95883.34
2023-02-07T00:46:24.821Z,95863.38
2023-02-07T00:48:54.245Z,95859.94
2023-02-07T00:51:21.413Z,95865.19
2023-02-07T00:53:48.616Z,95864.41
2023-02-07T00:56:15.700Z,95859.31
2023-02-07T00:58:42.458Z,95866.00
2023-02-07T01:01:09.331Z,95889.34
2023-02-07T01:03:36.085Z,95902.47
2023-02-07T01:06:02.866Z,95906.31
2023-02-07T01:08:29.630Z,95870.81
2023-02-07T01:10:57.701Z,95895.22
2023-02-07T01:13:24.354Z,95908.13
2023-02-07T01:15:51.048Z,95905.69
2023-02-07T01:18:17.880Z,95909.13
2023-02-07T01:20:45.341Z,95913.56
2023-02-07T01:23:13.602Z,95902.25
2023-02-07T01:25:41.592Z,95913.94
2023-02-07T01:28:08.338Z,95900.81
2023-02-07T01:30:35.115Z,95884.88
2023-02-07T01:33:02.459Z,95895.34
2023-02-07T01:35:29.340Z,95901.75
2023-02-07T01:37:58.424Z,95890.63
2023-02-07T01:40:27.018Z,95902.91
2023-02-07T01:42:53.685Z,95905.91
2023-02-07T01:45:36.614Z,95905.91
2023-02-07T01:48:11.560Z,95896.44
2023-02-07T01:50:41.503Z,95899.03
2023-02-07T01:53:10.432Z,95898.25
2023-02-07T01:55:41.213Z,95914.16
2023-02-07T01:58:08.924Z,95907.09
2023-02-07T02:00:36.884Z,95906.06
2023-02-07T02:03:04.936Z,95910.06
2023-02-07T02:05:33.621Z,95904.16
2023-02-07T02:08:00.409Z,95904.34
2023-02-07T02:10:52.012Z,95911.75
2023-02-07T02:13:28.265Z,95935.72
2023-02-07T02:16:07.061Z,95938.09
2023-02-07T02:18:45.232Z,95942.72
2023-02-07T02:21:44.779Z,95939.22
2023-02-07T02:24:15.906Z,95930.13
2023-02-07T02:27:06.630Z,95910.56
2023-02-07T02:30:19.726Z,95906.09
2023-02-07T02:32:58.583Z,95910.56
2023-02-07T02:36:10.849Z,95902.66
2023-02-07T02:38:51.770Z,95908.25
2023-02-07T02:41:23.942Z,95902.38
2023-02-07T02:44:03.994Z,95911.03
2023-02-07T02:46:37.423Z,95926.47
2023-02-07T02:49:07.868Z,95927.00
2023-02-07T02:51:34.570Z,95927.25
2023-02-07T02:54:01.660Z,95933.28
2023-02-07T02:56:57.821Z,95931.00
2023-02-07T02:59:52.714Z,95919.28
2023-02-07T03:02:22.550Z,95930.13
2023-02-07T03:05:14.280Z,95924.50
2023-02-07T03:08:25.530Z,95918.97
2023-02-07T03:11:07.934Z,95919.22
2023-02-07T03:13:56.424Z,95928.50
2023-02-07T03:16:29.494Z,95920.22
2023-02-07T03:19:24.957Z,95919.53
2023-02-07T03:22:13.881Z,95923.75
2023-02-07T03:24:51.076Z,95915.28
2023-02-07T03:27:21.093Z,95913.41
2023-02-07T03:29:57.717Z,95926.28
2023-02-07T03:32:29.777Z,95922.59
2023-02-07T03:35:07.893Z,95919.00
2023-02-07T03:37:51.308Z,95914.59
2023-02-07T03:40:18.872Z,95911.34
2023-02-07T03:43:32.326Z,95919.19
2023-02-07T03:45:59.043Z,95901.22
2023-02-07T03:48:25.732Z,95908.25
2023-02-07T03:50:53.012Z,95916.28
2023-02-07T03:53:20.587Z,95916.81
2023-02-07T03:55:47.508Z,95926.09
2023-02-07T03:58:14.550Z,95919.44
2023-02-07T04:00:41.302Z,95933.31
2023-02-07T04:03:08.013Z,95919.00
2023-02-07T04:05:34.753Z,95918.44
2023-02-07T04:08:01.491Z,95908.28
2023-02-07T04:10:28.218Z,95904.13
2023-02-07T04:12:54.948Z,95892.88
2023-02-07T04:15:21.942Z,95873.69
2023-02-07T04:17:48.591Z,95890.63
2023-02-07T04:20:15.296Z,95911.09
2023-02-07T04:22:41.963Z,95895.47
2023-02-07T04:25:08.714Z,95903.31
2023-02-07T04:27:35.370Z,95897.84
2023-02-07T04:30:02.059Z,95897.22
2023-02-07T04:32:28.762Z,95889.50
2023-02-07T04:34:55.452Z,95885.91
2023-02-07T04:37:22.144Z,95890.88
2023-02-07T04:39:48.800Z,95887.44
2023-02-07T04:42:15.467Z,95892.47
2023-02-07T04:44:42.084Z,95890.25
2023-02-07T04:47:08.743Z,95878.53
2023-02-07T04:49:35.484Z,95870.41
2023-02-07T04:52:02.310Z,95876.47
2023-02-07T04:54:28.937Z,95866.81
2023-02-07T04:56:55.687Z,95848.81
2023-02-07T04:59:22.369Z,95875.81
2023-02-07T05:01:49.014Z,95864.91
2023-02-07T05:04:15.733Z,95871.31
2023-02-07T05:06:42.366Z,95880.31
2023-02-07T05:09:08.978Z,95887.84
2023-02-07T05:11:35.820Z,95885.34
2023-02-07T05:14:02.452Z,95876.88
2023-02-07T05:16:29.160Z,95884.53
2023-02-07T05:18:55.872Z,95895.22
2023-02-07T05:21:22.716Z,95889.47
2023-02-07T05:23:50.060Z,95889.56
2023-02-07T05:26:17.425Z,95891.19
2023-02-07T05:28:44.925Z,95905.03
2023-02-07T05:31:11.733Z,95887.44
2023-02-07T05:33:38.404Z,95906.84
2023-02-07T05:36:05.548Z,95907.66
2023-02-07T05:38:32.256Z,95912.50
2023-02-07T05:40:58.999Z,95894.16
2023-02-07T05:43:25.639Z,95903.88
2023-02-07T05:45:52.377Z,95890.75
2023-02-07T05:48:19.061Z,95891.09
2023-02-07T05:50:45.734Z,95898.03
2023-02-07T05:53:13.071Z,95903.06
2023-02-07T05:55:40.927Z,95897.75
2023-02-07T05:58:07.760Z,95895.59
2023-02-07T06:00:34.421Z,95886.69
2023-02-07T06:03:01.013Z,95908.47
2023-02-07T06:05:31.843Z,95895.41
2023-02-07T06:07:58.987Z,95891.91
2023-02-07T06:10:25.719Z,95898.38
2023-02-07T06:12:52.512Z,95889.41
2023-02-07T06:15:19.208Z,95896.13
2023-02-07T06:17:45.866Z,95900.72
2023-02-07T06:20:12.768Z,95904.25
2023-02-07T06:22:39.561Z,95895.34
2023-02-07T06:25:10.611Z,95900.22
2023-02-07T06:27:39.780Z,95886.09
2023-02-07T06:30:08.026Z,95898.78
2023-02-07T06:32:34.870Z,95904.63
2023-02-07T06:35:01.583Z,95895.44
2023-02-07T06:37:28.247Z,95891.41
2023-02-07T06:39:54.918Z,95879.19
2023-02-07T06:42:21.773Z,95907.03
2023-02-07T06:44:48.425Z,95901.28
2023-02-07T06:47:16.395Z,95907.41
2023-02-07T06:49:43.148Z,95913.06
2023-02-07T06:52:09.779Z,95909.47
2023-02-07T06:54:36.474Z,95917.75
2023-02-07T06:57:03.413Z,95919.16
2023-02-07T06:59:30.088Z,95907.06
2023-02-07T07:01:56.935Z,95913.13
2023-02-07T07:04:23.572Z,95926.81
2023-02-07T07:06:50.224Z,95927.38
2023-02-07T07:09:16.948Z,95926.56
2023-02-07T07:11:44.400Z,95917.13
2023-02-07T07:14:11.894Z,95913.53
2023-02-07T07:16:40.877Z,95918.00
2023-02-07T07:19:07.509Z,95919.25
2023-02-07T07:21:34.200Z,95914.13
2023-02-07T07:24:00.818Z,95901.13
2023-02-07T07:26:36.567Z,95930.38
2023-02-07T07:29:09.594Z,95916.72
2023-02-07T07:31:36.292Z,95925.84
2023-02-07T07:34:02.920Z,95911.31
2023-02-07T07:36:29.655Z,95925.75
2023-02-07T07:38:56.388Z,95920.78
2023-02-07T07:41:23.767Z,95926.53
2023-02-07T07:43:50.533Z,95907.50
2023-02-07T07:46:17.192Z,95932.16
2023-02-07T07:48:43.849Z,95935.78
2023-02-07T07:51:10.508Z,95933.72
2023-02-07T07:53:37.128Z,95940.53
2023-02-07T07:56:04.171Z,95930.88
2023-02-07T07:58:31.461Z,95928.06
2023-02-07T08:00:58.126Z,95924.44
2023-02-07T08:03:24.817Z,95921.19
2023-02-07T08:05:51.795Z,95936.63
2023-02-07T08:08:19.956Z,95935.78
2023-02-07T08:10:47.199Z,95936.19
2023-02-07T08:13:13.894Z,95941.44
2023-02-07T08:15:40.609Z,95941.41
2023-02-07T08:18:07.302Z,95938.59
2023-02-07T08:20:35.157Z,95933.41
2023-02-07T08:23:02.241Z,95942.88
2023-02-07T08:25:29.161Z,95946.88
2023-02-07T08:27:55.901Z,95928.09
2023-02-07T08:30:22.694Z,95947.88
2023-02-07T08:32:51.734Z,95951.03
2023-02-07T08:35:18.897Z,95964.72
2023-02-07T08:37:45.613Z,95963.94
2023-02-07T08:40:13.157Z,95963.53
2023-02-07T08:42:40.064Z,95949.53
2023-02-07T08:45:07.184Z,95970.69
2023-02-07T08:47:33.936Z,95976.75
2023-02-07T08:50:00.553Z,95970.31
2023-02-07T08:52:28.962Z,95970.69
2023-02-07T08:54:56.441Z,95979.53
2023-02-07T08:57:24.531Z,95971.00
2023-02-07T08:59:52.469Z,95967.03
2023-02-07T09:02:19.206Z,95968.91
2023-02-07T09:04:45.918Z,95956.97
2023-02-07T09:07:12.695Z,95960.13
2023-02-07T09:09:40.407Z,95970.44
2023-02-07T09:12:08.494Z,95958.78
2023-02-07T09:14:35.556Z,95961.09
2023-02-07T09:17:02.672Z,95957.22
2023-02-07T09:19:29.331Z,95963.88
2023-02-07T09:21:55.989Z,95962.72
2023-02-07T09:24:22.782Z,95971.44
2023-02-07T09:26:49.880Z,95959.97
2023-02-07T09:29:17.129Z,95961.59
2023-02-07T09:31:44.013Z,95969.22
2023-02-07T09:34:10.862Z,95962.69
2023-02-07T09:36:37.621Z,95955.50
2023-02-07T09:39:05.447Z,95957.28
2023-02-07T09:41:42.609Z,95955.53
2023-02-07T09:44:25.894Z,95972.09
2023-02-07T09:47:02.119Z,95966.03
2023-02-07T09:49:47.705Z,95973.69
2023-02-07T09:52:29.800Z,95983.59
2023-02-07T09:54:58.392Z,95977.75
2023-02-07T09:57:28.152Z,95985.84
2023-02-07T10:00:20.637Z,95975.66
2023-02-07T10:03:21.329Z,95982.97
2023-02-07T10:06:01.476Z,95988.25
2023-02-07T10:08:39.749Z,95992.50
2023-02-07T10:11:35.568Z,95993.53
2023-02-07T10:14:27.252Z,95996.63
2023-02-07T10:17:35.146Z,95986.84
2023-02-07T10:20:26.641Z,95990.31
2023-02-07T10:23:02.804Z,95980.44
2023-02-07T10:25:38.439Z,95986.66
2023-02-07T10:28:14.329Z,95982.06
2023-02-07T10:30:49.691Z,95981.34
2023-02-07T10:33:24.030Z,95972.16
2023-02-07T10:35:52.246Z,95981.22
2023-02-07T10:38:38.089Z,95981.41
2023-02-07T10:41:13.782Z,95977.13
2023-02-07T10:43:43.789Z,95976.16
2023-02-07T10:46:13.508Z,95976.34
2023-02-07T10:48:40.229Z,95987.53
2023-02-07T10:51:29.890Z,95980.16
2023-02-07T10:54:11.317Z,95984.78
2023-02-07T10:56:50.519Z,95980.44
2023-02-07T10:59:45.633Z,95976.47
2023-02-07T11:02:31.777Z,95977.19
2023-02-07T11:05:01.014Z,95976.91
2023-02-07T11:07:32.503Z,95986.56
2023-02-07T11:10:21.803Z,95988.34
2023-02-07T11:12:53.502Z,95979.47
2023-02-07T11:15:26.072Z,95983.00
2023-02-07T11:17:56.934Z,95994.13
2023-02-07T11:20:39.237Z,95992.53
2023-02-07T11:23:11.813Z,95994.75
2023-02-07T11:25:44.274Z,95989.97
2023-02-07T11:28:21.508Z,96001.09
2023-02-07T11:30:56.470Z,95996.34
2023-02-07T11:33:27.043Z,95993.66
2023-02-07T11:36:18.910Z,95991.47
2023-02-07T11:38:55.881Z,95987.47
2023-02-07T11:41:30.803Z,95998.41
2023-02-07T11:43:57.350Z,95993.03
2023-02-07T11:46:46.417Z,95998.13
2023-02-07T11:49:37.991Z,95996.22
2023-02-07T11:52:05.188Z,96002.25
2023-02-07T11:54:32.620Z,96001.56
2023-02-07T11:57:14.668Z,95999.66
2023-02-07T11:59:49.988Z,95988.31
2023-02-07T12:02:24.300Z,95986.59
2023-02-07T12:04:52.871Z,95983.97
2023-02-07T12:07:27.747Z,95983.81
2023-02-07T12:10:01.760Z,95978.69
2023-02-07T12:12:43.663Z,95979.66
2023-02-07T12:15:25.640Z,95971.81
2023-02-07T12:18:36.457Z,95964.69
2023-02-07T12:21:22.519Z,95970.03
2023-02-07T12:24:00.410Z,95969.56
2023-02-07T12:26:32.734Z,95971.81
2023-02-07T12:29:17.823Z,95966.16
2023-02-07T12:32:07.602Z,95965.13
2023-02-07T12:35:12.000Z,95963.78
2023-02-07T12:38:06.826Z,95970.50
2023-02-07T12:40:38.285Z,95969.81
2023-02-07T12:43:38.103Z,95962.16
2023-02-07T12:46:38.395Z,95950.38
2023-02-07T12:49:22.786Z,95949.47
2023-02-07T12:52:18.576Z,95953.97
2023-02-07T12:55:01.856Z,95951.00
2023-02-07T12:57:37.887Z,95958.59
2023-02-07T13:00:28.845Z,95958.56
2023-02-07T13:03:26.027Z,95957.44
2023-02-07T13:06:31.012Z,95951.94
2023-02-07T13:09:23.683Z,95959.03
2023-02-07T13:11:58.930Z,95951.13
2023-02-07T13:14:35.568Z,95954.22
2023-02-07T13:17:14.438Z,95960.22
2023-02-07T13:20:11.208Z,95958.13
2023-02-07T13:22:50.485Z,95957.31
2023-02-07T13:25:23.395Z,95951.59
2023-02-07T13:27:54.719Z,95937.22
2023-02-07T13:30:22.303Z,95946.41
2023-02-07T13:32:50.776Z,95951.78
2023-02-07T13:35:25.012Z,95947.94
2023-02-07T13:38:18.951Z,95950.31
2023-02-07T13:41:06.016Z,95961.75
2023-02-07T13:44:01.674Z,95951.75
2023-02-07T13:47:11.653Z,95952.19
2023-02-07T13:49:53.437Z,95958.63
2023-02-07T13:52:34.806Z,95946.09
2023-02-07T13:55:20.524Z,95958.63
2023-02-07T13:58:05.978Z,95948.81
2023-02-07T14:00:53.515Z,95953.69
2023-02-07T14:03:22.723Z,95958.06
2023-02-07T14:05:49.838Z,95938.50
2023-02-07T14:08:16.622Z,95949.28
2023-02-07T14:10:47.857Z,95950.31
2023-02-07T14:13:26.827Z,95949.44
2023-02-07T14:15:56.675Z,95950.94
2023-02-07T14:18:44.783Z,95949.19
2023-02-07T14:21:21.086Z,95950.69
2023-02-07T14:23:53.925Z,95945.53
2023-02-07T14:26:36.701Z,95954.09
2023-02-07T14:29:24.576Z,95963.66
2023-02-07T14:31:55.725Z,95959.41
2023-02-07T14:34:28.509Z,95966.41
2023-02-07T14:36:55.225Z,95961.69
2023-02-07T14:39:29.997Z,95951.13
2023-02-07T14:42:11.360Z,95965.94
2023-02-07T14:44:41.600Z,95968.69
2023-02-07T14:47:19.890Z,95968.28
2023-02-07T14:49:50.522Z,95981.84
2023-02-07T14:52:24.425Z,95965.94
2023-02-07T14:54:56.016Z,95969.22
2023-02-07T14:57:43.273Z,95972.97
2023-02-07T15:00:12.930Z,95968.25
2023-02-07T15:02:43.557Z,95973.13
2023-02-07T15:05:13.465Z,95969.94
2023-02-07T15:07:40.802Z,95974.47
2023-02-07T15:10:14.702Z,95974.78
2023-02-07T15:12:45.782Z,95969.28
2023-02-07T15:15:25.893Z,95966.63
2023-02-07T15:17:55.376Z,95969.25
2023-02-07T15:20:34.363Z,95973.75
2023-02-07T15:23:04.372Z,95965.41
2023-02-07T15:25:32.795Z,95973.34
2023-02-07T15:28:01.265Z,95974.69
2023-02-07T15:30:28.630Z,95970.59
2023-02-07T15:32:55.348Z,95967.81
2023-02-07T15:35:36.791Z,95970.38
2023-02-07T15:38:16.063Z,95971.72
2023-02-07T15:40:42.886Z,95978.25
2023-02-07T15:43:29.563Z,95976.06
2023-02-07T15:46:09.623Z,95977.69
2023-02-07T15:48:55.017Z,95977.25
2023-02-07T15:51:26.506Z,95986.75
2023-02-07T15:53:57.496Z,95989.09
2023-02-07T15:56:25.043Z,95978.53
2023-02-07T15:58:53.998Z,95983.91
2023-02-07T16:01:26.325Z,95986.31
2023-02-07T16:03:56.520Z,95986.50
2023-02-07T16:06:26.046Z,95983.97
2023-02-07T16:08:55.158Z,95994.53
2023-02-07T16:11:27.806Z,95990.88
2023-02-07T16:13:54.451Z,95992.75
2023-02-07T16:16:26.493Z,95995.72
2023-02-07T16:19:08.089Z,96004.41
2023-02-07T16:21:36.721Z,96005.22
2023-02-07T16:24:13.793Z,96010.34
2023-02-07T16:26:40.947Z,96008.56
2023-02-07T16:29:08.552Z,96007.19
2023-02-07T16:31:35.622Z,96012.34
2023-02-07T16:34:02.328Z,96009.13
2023-02-07T16:36:29.284Z,96011.41
2023-02-07T16:38:55.950Z,96014.09
2023-02-07T16:41:32.378Z,96012.09
2023-02-07T16:44:06.652Z,96019.97
2023-02-07T16:46:34.219Z,96018.41
2023-02-07T16:49:01.415Z,96014.72
2023-02-07T16:51:28.346Z,96001.97
2023-02-07T16:53:55.053Z,96007.44
2023-02-07T16:56:26.499Z,96008.69
2023-02-07T16:58:53.307Z,96007.31
2023-02-07T17:01:21.624Z,96018.06
2023-02-07T17:03:48.784Z,96017.69
2023-02-07T17:06:20.570Z,96013.28
2023-02-07T17:08:48.386Z,96021.16
2023-02-07T17:11:20.726Z,96015.31
2023-02-07T17:13:47.535Z,96016.16
2023-02-07T17:16:14.294Z,96020.56
2023-02-07T17:18:41.230Z,96012.69
2023-02-07T17:21:13.672Z,96013.31
2023-02-07T17:23:40.373Z,96018.16
2023-02-07T17:26:25.164Z,96014.50
2023-02-07T17:28:52.692Z,96012.69
2023-02-07T17:31:19.522Z,96012.09
2023-02-07T17:33:46.212Z,96015.13
2023-02-07T17:36:14.523Z,96022.59
2023-02-07T17:38:42.572Z,96022.00
2023-02-07T17:41:11.700Z,96024.22
2023-02-07T17:43:41.216Z,96021.59
2023-02-07T17:46:20.161Z,96015.13
2023-02-07T17:48:49.143Z,96021.78
2023-02-07T17:51:17.051Z,96027.03
2023-02-07T17:53:44.551Z,96018.56
2023-02-07T17:56:30.767Z,96023.81
2023-02-07T17:59:02.920Z,96029.47
2023-02-07T18:01:33.926Z,96033.91
2023-02-07T18:04:02.461Z,96023.41
2023-02-07T18:06:30.387Z,96025.84
2023-02-07T18:09:00.989Z,96018.34
2023-02-07T18:11:28.173Z,96030.25
2023-02-07T18:13:57.136Z,96027.03
2023-02-07T18:16:26.338Z,96039.91
2023-02-07T18:18:55.923Z,96039.50
2023-02-07T18:21:22.696Z,96031.81
2023-02-07T18:23:49.661Z,96035.84
2023-02-07T18:26:16.700Z,96034.25
2023-02-07T18:28:43.915Z,96029.44
2023-02-07T18:31:12.353Z,96017.31
2023-02-07T18:33:39.151Z,96027.81
2023-02-07T18:36:06.633Z,96033.69
2023-02-07T18:38:33.309Z,96037.53
2023-02-07T18:40:59.896Z,96026.44
2023-02-07T18:43:26.582Z,96022.59
2023-02-07T18:45:53.265Z,96024.00
2023-02-07T18:48:19.933Z,96023.59
2023-02-07T18:50:48.147Z,96016.75
2023-02-07T18:53:14.861Z,96015.91
2023-02-07T18:55:42.416Z,96019.75
2023-02-07T18:58:09.158Z,96016.13
2023-02-07T19:00:35.761Z,96013.13
2023-02-07T19:03:02.414Z,96017.31
2023-02-07T19:05:29.097Z,96027.00
2023-02-07T19:07:56.279Z,96028.63
2023-02-07T19:10:22.970Z,96026.22
2023-02-07T19:12:49.591Z,96018.31
2023-02-07T19:15:16.367Z,96018.13
2023-02-07T19:17:43.053Z,96015.69
2023-02-07T19:20:10.177Z,96019.50
2023-02-07T19:22:37.658Z,96015.06
2023-02-07T19:25:05.718Z,96018.53
2023-02-07T19:27:32.613Z,96023.34
2023-02-07T19:29:59.547Z,96022.13
2023-02-07T19:32:26.253Z,96033.28
2023-02-07T19:34:52.969Z,96030.25
2023-02-07T19:37:19.666Z,96039.72
2023-02-07T19:39:46.536Z,96022.78
2023-02-07T19:42:13.361Z,96038.31
2023-02-07T19:44:39.989Z,96027.63
2023-02-07T19:47:06.729Z,96029.44
2023-02-07T19:49:33.436Z,96027.44
2023-02-07T19:52:00.151Z,96023.38
2023-02-07T19:54:26.762Z,96016.53
2023-02-07T19:56:53.382Z,96010.69
2023-02-07T19:59:20.062Z,96020.38
2023-02-07T20:01:46.745Z,96005.63
2023-02-07T20:04:13.565Z,96012.09
2023-02-07T20:06:40.412Z,96004.41
2023-02-07T20:09:07.914Z,96015.75
2023-02-07T20:11:35.210Z,96007.25
2023-02-07T20:14:06.921Z,96009.25
2023-02-07T20:16:36.758Z,96007.66
2023-02-07T20:19:06.714Z,96002.59
2023-02-07T20:21:35.736Z,96007.25
2023-02-07T20:24:02.628Z,96002.78
2023-02-07T20:26:32.337Z,96008.06
2023-02-07T20:29:00.871Z,96000.56
2023-02-07T20:31:29.205Z,96006.84
2023-02-07T20:33:57.621Z,96007.22
2023-02-07T20:36:25.783Z,96010.06
2023-02-07T20:38:53.180Z,96016.53
2023-02-07T20:41:29.280Z,96013.91
2023-02-07T20:44:05.237Z,96013.09
2023-02-07T20:46:34.309Z,96025.00
2023-02-07T20:49:03.593Z,96022.56
2023-02-07T20:51:30.770Z,96025.19
2023-02-07T20:53:59.290Z,96026.41
2023-02-07T20:56:27.301Z,96018.50
2023-02-07T20:58:58.078Z,96032.22
2023-02-07T21:01:27.372Z,96028.00
2023-02-07T21:03:56.243Z,96020.53
2023-02-07T21:06:24.122Z,96022.53
2023-02-07T21:08:55.344Z,96036.25
2023-02-07T21:11:22.158Z,96022.50
2023-02-07T21:13:53.680Z,96032.00
2023-02-07T21:16:21.226Z,96024.31
2023-02-07T21:18:48.370Z,96027.75
2023-02-07T21:21:15.918Z,96028.59
2023-02-07T21:23:42.813Z,96023.72
2023-02-07T21:26:13.825Z,96027.75
2023-02-07T21:28:40.923Z,96027.94
2023-02-07T21:31:14.677Z,96031.38
2023-02-07T21:33:41.393Z,96027.94
2023-02-07T21:36:11.093Z,96032.16
2023-02-07T21:38:39.612Z,96028.13
2023-02-07T21:41:08.633Z,96029.13
2023-02-07T21:43:36.095Z,96033.56
2023-02-07T21:46:09.049Z,96029.72
2023-02-07T21:48:37.075Z,96037.00
2023-02-07T21:51:13.769Z,96029.34
2023-02-07T21:53:40.603Z,96035.41
2023-02-07T21:56:11.503Z,96034.38
2023-02-07T21:58:38.891Z,96029.31
2023-02-07T22:01:08.297Z,96036.97
2023-02-07T22:03:36.726Z,96036.16
2023-02-07T22:06:05.000Z,96035.16
2023-02-07T22:08:32.410Z,96028.88
2023-02-07T22:11:05.918Z,96025.47
2023-02-07T22:13:33.454Z,96032.72
2023-02-07T22:16:00.475Z,96031.66
2023-02-07T22:18:27.503Z,96032.28
2023-02-07T22:20:54.368Z,96037.13
2023-02-07T22:23:21.141Z,96036.91
2023-02-07T22:25:47.745Z,96035.72
2023-02-07T22:28:14.492Z,96031.66
2023-02-07T22:30:41.594Z,96041.56
2023-02-07T22:33:10.006Z,96031.28
2023-02-07T22:35:38.450Z,96030.84
2023-02-07T22:38:05.335Z,96028.44
2023-02-07T22:40:36.553Z,96020.38
2023-02-07T22:43:06.316Z,96029.84
2023-02-07T22:45:35.859Z,96017.53
2023-02-07T22:48:03.460Z,96014.69
2023-02-07T22:50:30.062Z,95997.91
2023-02-07T22:52:57.460Z,96013.06
2023-02-07T22:55:24.160Z,96004.38
2023-02-07T22:57:51.691Z,96017.09
2023-02-07T23:00:19.912Z,96005.38
2023-02-07T23:02:46.775Z,96013.00
2023-02-07T23:05:13.464Z,96007.91
2023-02-07T23:07:40.383Z,96008.16
2023-02-07T23:10:08.446Z,96011.00
2023-02-07T23:12:35.324Z,96000.69
2023-02-07T23:15:02.830Z,96002.06
2023-02-07T23:17:29.502Z,96013.16
2023-02-07T23:19:56.647Z,96008.72
2023-02-07T23:22:23.414Z,96003.28
2023-02-07T23:24:50.409Z,96001.88
2023-02-07T23:27:17.169Z,96011.16
2023-02-07T23:29:44.091Z,96007.09
2023-02-07T23:32:10.706Z,96010.34
2023-02-07T23:34:37.302Z,95998.63
2023-02-07T23:37:04.130Z,95998.00
2023-02-07T23:39:31.109Z,96002.06
2023-02-07T23:41:58.391Z,96007.28
2023-02-07T23:44:25.290Z,95993.56
2023-02-07T23:46:52.421Z,95993.16
2023-02-07T23:49:19.277Z,95980.22
2023-02-07T23:51:45.904Z,95981.00
2023-02-07T23:54:13.167Z,95980.47
2023-02-07T23:56:39.860Z,95979.63
2023-02-07T23:59:06.885Z,95971.78
